sensor_id;sensor_type;location;lat;lon;timestamp;P1;durP1;ratioP1;P2;durP2;ratioP2
77581;SDS011;66726;52.388;9.986;2023-05-10T00:02:23;6.93;;;3.80;;
77581;SDS011;66726;52.388;9.986;2023-05-10T00:04:55;5.43;;;3.77;;
77581;SDS011;66726;52.388;9.986;2023-05-10T00:07:27;5.07;;;3.40;;
77581;SDS011;66726;52.388;9.986;2023-05-10T00:09:58;6.70;;;3.93;;
77581;SDS011;66726;52.388;9.986;2023-05-10T00:12:32;5.53;;;4.50;;
77581;SDS011;66726;52.388;9.986;2023-05-10T00:15:04;4.43;;;3.57;;
77581;SDS011;66726;52.388;9.986;2023-05-10T00:17:38;8.77;;;4.30;;
77581;SDS011;66726;52.388;9.986;2023-05-10T00:20:10;4.83;;;3.90;;
77581;SDS011;66726;52.388;9.986;2023-05-10T00:22:43;5.10;;;3.60;;
77581;SDS011;66726;52.388;9.986;2023-05-10T00:25:15;4.33;;;3.67;;
77581;SDS011;66726;52.388;9.986;2023-05-10T00:27:49;9.10;;;3.77;;
77581;SDS011;66726;52.388;9.986;2023-05-10T00:30:23;6.03;;;3.83;;
77581;SDS011;66726;52.388;9.986;2023-05-10T00:32:55;5.53;;;3.80;;
77581;SDS011;66726;52.388;9.986;2023-05-10T00:35:27;6.30;;;4.70;;
77581;SDS011;66726;52.388;9.986;2023-05-10T00:37:59;8.13;;;4.40;;
77581;SDS011;66726;52.388;9.986;2023-05-10T00:40:30;4.57;;;3.90;;
77581;SDS011;66726;52.388;9.986;2023-05-10T00:43:06;5.90;;;4.40;;
77581;SDS011;66726;52.388;9.986;2023-05-10T00:45:38;4.57;;;4.17;;
77581;SDS011;66726;52.388;9.986;2023-05-10T00:48:11;5.40;;;3.70;;
77581;SDS011;66726;52.388;9.986;2023-05-10T00:50:43;4.97;;;4.47;;
77581;SDS011;66726;52.388;9.986;2023-05-10T00:53:15;6.73;;;4.10;;
77581;SDS011;66726;52.388;9.986;2023-05-10T00:55:48;5.10;;;4.60;;
77581;SDS011;66726;52.388;9.986;2023-05-10T00:58:21;6.03;;;4.40;;
77581;SDS011;66726;52.388;9.986;2023-05-10T01:00:54;4.83;;;4.27;;
77581;SDS011;66726;52.388;9.986;2023-05-10T01:03:28;5.50;;;4.33;;
77581;SDS011;66726;52.388;9.986;2023-05-10T01:06:01;6.87;;;4.60;;
77581;SDS011;66726;52.388;9.986;2023-05-10T01:08:36;6.03;;;3.97;;
77581;SDS011;66726;52.388;9.986;2023-05-10T01:11:07;4.87;;;4.20;;
77581;SDS011;66726;52.388;9.986;2023-05-10T01:13:41;4.47;;;4.07;;
77581;SDS011;66726;52.388;9.986;2023-05-10T01:16:19;7.43;;;3.60;;
77581;SDS011;66726;52.388;9.986;2023-05-10T01:18:52;4.17;;;3.77;;
77581;SDS011;66726;52.388;9.986;2023-05-10T01:21:27;5.37;;;4.27;;
77581;SDS011;66726;52.388;9.986;2023-05-10T01:24:19;5.80;;;4.10;;
77581;SDS011;66726;52.388;9.986;2023-05-10T01:27:25;7.40;;;4.47;;
77581;SDS011;66726;52.388;9.986;2023-05-10T01:33:47;5.57;;;4.60;;
77581;SDS011;66726;52.388;9.986;2023-05-10T01:36:28;5.83;;;4.07;;
77581;SDS011;66726;52.388;9.986;2023-05-10T01:39:08;7.80;;;4.80;;
77581;SDS011;66726;52.388;9.986;2023-05-10T01:41:52;6.43;;;4.70;;
77581;SDS011;66726;52.388;9.986;2023-05-10T01:44:33;5.10;;;4.57;;
77581;SDS011;66726;52.388;9.986;2023-05-10T01:47:14;6.73;;;4.63;;
77581;SDS011;66726;52.388;9.986;2023-05-10T01:50:03;6.87;;;4.70;;
77581;SDS011;66726;52.388;9.986;2023-05-10T01:52:42;5.60;;;4.80;;
77581;SDS011;66726;52.388;9.986;2023-05-10T01:55:22;6.60;;;4.60;;
77581;SDS011;66726;52.388;9.986;2023-05-10T01:58:00;5.67;;;4.47;;
77581;SDS011;66726;52.388;9.986;2023-05-10T02:00:36;8.13;;;5.10;;
77581;SDS011;66726;52.388;9.986;2023-05-10T02:03:14;10.93;;;5.03;;
77581;SDS011;66726;52.388;9.986;2023-05-10T02:05:53;5.73;;;4.40;;
77581;SDS011;66726;52.388;9.986;2023-05-10T02:08:26;5.00;;;4.57;;
77581;SDS011;66726;52.388;9.986;2023-05-10T02:11:00;7.93;;;4.87;;
77581;SDS011;66726;52.388;9.986;2023-05-10T02:13:35;5.47;;;4.97;;
77581;SDS011;66726;52.388;9.986;2023-05-10T02:16:11;7.07;;;4.93;;
77581;SDS011;66726;52.388;9.986;2023-05-10T02:18:46;7.80;;;5.03;;
77581;SDS011;66726;52.388;9.986;2023-05-10T02:21:21;5.97;;;5.23;;
77581;SDS011;66726;52.388;9.986;2023-05-10T02:23:55;6.33;;;5.10;;
77581;SDS011;66726;52.388;9.986;2023-05-10T02:26:28;7.20;;;4.97;;
77581;SDS011;66726;52.388;9.986;2023-05-10T02:29:03;7.23;;;4.87;;
77581;SDS011;66726;52.388;9.986;2023-05-10T02:31:38;6.80;;;4.90;;
77581;SDS011;66726;52.388;9.986;2023-05-10T02:34:10;7.13;;;4.90;;
77581;SDS011;66726;52.388;9.986;2023-05-10T02:36:44;7.23;;;4.90;;
77581;SDS011;66726;52.388;9.986;2023-05-10T02:39:17;6.70;;;5.07;;
77581;SDS011;66726;52.388;9.986;2023-05-10T02:41:52;8.03;;;5.10;;
77581;SDS011;66726;52.388;9.986;2023-05-10T02:44:27;6.20;;;5.60;;
77581;SDS011;66726;52.388;9.986;2023-05-10T02:47:03;5.90;;;5.30;;
77581;SDS011;66726;52.388;9.986;2023-05-10T02:49:35;7.03;;;5.13;;
77581;SDS011;66726;52.388;9.986;2023-05-10T02:52:09;6.53;;;5.50;;
77581;SDS011;66726;52.388;9.986;2023-05-10T02:54:49;5.50;;;4.97;;
77581;SDS011;66726;52.388;9.986;2023-05-10T02:57:28;6.63;;;5.20;;
77581;SDS011;66726;52.388;9.986;2023-05-10T03:00:08;6.13;;;5.20;;
77581;SDS011;66726;52.388;9.986;2023-05-10T03:02:41;5.93;;;5.33;;
77581;SDS011;66726;52.388;9.986;2023-05-10T03:05:13;6.63;;;5.23;;
77581;SDS011;66726;52.388;9.986;2023-05-10T03:07:47;7.03;;;5.80;;
77581;SDS011;66726;52.388;9.986;2023-05-10T03:10:19;6.20;;;4.97;;
77581;SDS011;66726;52.388;9.986;2023-05-10T03:12:59;5.93;;;5.33;;
77581;SDS011;66726;52.388;9.986;2023-05-10T03:15:42;6.17;;;5.40;;
77581;SDS011;66726;52.388;9.986;2023-05-10T03:18:27;7.37;;;5.77;;
77581;SDS011;66726;52.388;9.986;2023-05-10T03:21:07;6.00;;;5.33;;
77581;SDS011;66726;52.388;9.986;2023-05-10T03:23:46;7.80;;;5.70;;
77581;SDS011;66726;52.388;9.986;2023-05-10T03:26:26;9.33;;;5.60;;
77581;SDS011;66726;52.388;9.986;2023-05-10T03:28:59;6.67;;;5.50;;
77581;SDS011;66726;52.388;9.986;2023-05-10T03:31:33;8.47;;;5.30;;
77581;SDS011;66726;52.388;9.986;2023-05-10T03:34:05;7.97;;;5.60;;
77581;SDS011;66726;52.388;9.986;2023-05-10T03:36:37;6.60;;;5.20;;
77581;SDS011;66726;52.388;9.986;2023-05-10T03:39:10;6.10;;;5.50;;
77581;SDS011;66726;52.388;9.986;2023-05-10T03:41:42;5.87;;;5.27;;
77581;SDS011;66726;52.388;9.986;2023-05-10T03:44:14;6.77;;;5.40;;
77581;SDS011;66726;52.388;9.986;2023-05-10T03:46:47;8.60;;;5.37;;
77581;SDS011;66726;52.388;9.986;2023-05-10T03:49:19;11.40;;;6.37;;
77581;SDS011;66726;52.388;9.986;2023-05-10T03:51:51;7.40;;;6.03;;
77581;SDS011;66726;52.388;9.986;2023-05-10T03:54:24;8.93;;;5.60;;
77581;SDS011;66726;52.388;9.986;2023-05-10T03:56:55;6.37;;;5.77;;
77581;SDS011;66726;52.388;9.986;2023-05-10T03:59:29;6.73;;;5.50;;
77581;SDS011;66726;52.388;9.986;2023-05-10T04:02:01;6.50;;;5.90;;
77581;SDS011;66726;52.388;9.986;2023-05-10T04:04:33;8.77;;;5.50;;
77581;SDS011;66726;52.388;9.986;2023-05-10T04:07:04;8.37;;;5.93;;
77581;SDS011;66726;52.388;9.986;2023-05-10T04:09:38;8.03;;;6.47;;
77581;SDS011;66726;52.388;9.986;2023-05-10T04:12:09;8.97;;;6.10;;
77581;SDS011;66726;52.388;9.986;2023-05-10T04:14:41;7.20;;;5.57;;
77581;SDS011;66726;52.388;9.986;2023-05-10T04:17:13;6.60;;;5.83;;
77581;SDS011;66726;52.388;9.986;2023-05-10T04:19:45;7.70;;;5.57;;
77581;SDS011;66726;52.388;9.986;2023-05-10T04:22:19;7.43;;;5.53;;
77581;SDS011;66726;52.388;9.986;2023-05-10T04:24:52;6.17;;;5.57;;
77581;SDS011;66726;52.388;9.986;2023-05-10T04:27:23;7.87;;;5.80;;
77581;SDS011;66726;52.388;9.986;2023-05-10T04:29:55;7.73;;;5.50;;
77581;SDS011;66726;52.388;9.986;2023-05-10T04:32:27;8.07;;;5.97;;
77581;SDS011;66726;52.388;9.986;2023-05-10T04:34:59;8.73;;;6.23;;
77581;SDS011;66726;52.388;9.986;2023-05-10T04:37:31;7.80;;;5.70;;
77581;SDS011;66726;52.388;9.986;2023-05-10T04:40:05;8.57;;;5.93;;
77581;SDS011;66726;52.388;9.986;2023-05-10T04:42:40;6.60;;;6.00;;
77581;SDS011;66726;52.388;9.986;2023-05-10T04:45:12;6.73;;;6.03;;
77581;SDS011;66726;52.388;9.986;2023-05-10T04:47:44;7.90;;;6.60;;
77581;SDS011;66726;52.388;9.986;2023-05-10T04:50:16;6.67;;;5.90;;
77581;SDS011;66726;52.388;9.986;2023-05-10T04:52:48;9.93;;;6.37;;
77581;SDS011;66726;52.388;9.986;2023-05-10T04:55:21;10.90;;;6.23;;
77581;SDS011;66726;52.388;9.986;2023-05-10T04:57:53;7.93;;;6.33;;
77581;SDS011;66726;52.388;9.986;2023-05-10T05:00:25;8.37;;;6.53;;
77581;SDS011;66726;52.388;9.986;2023-05-10T05:02:57;7.43;;;6.37;;
77581;SDS011;66726;52.388;9.986;2023-05-10T05:05:29;8.13;;;6.83;;
77581;SDS011;66726;52.388;9.986;2023-05-10T05:08:00;9.20;;;6.90;;
77581;SDS011;66726;52.388;9.986;2023-05-10T05:10:34;7.60;;;6.90;;
77581;SDS011;66726;52.388;9.986;2023-05-10T05:13:06;9.97;;;6.80;;
77581;SDS011;66726;52.388;9.986;2023-05-10T05:15:39;6.83;;;6.23;;
77581;SDS011;66726;52.388;9.986;2023-05-10T05:18:11;9.70;;;6.83;;
77581;SDS011;66726;52.388;9.986;2023-05-10T05:20:43;8.03;;;7.13;;
77581;SDS011;66726;52.388;9.986;2023-05-10T05:23:15;9.83;;;6.50;;
77581;SDS011;66726;52.388;9.986;2023-05-10T05:25:52;8.40;;;7.43;;
77581;SDS011;66726;52.388;9.986;2023-05-10T05:28:24;9.93;;;6.97;;
77581;SDS011;66726;52.388;9.986;2023-05-10T05:30:59;8.13;;;7.30;;
77581;SDS011;66726;52.388;9.986;2023-05-10T05:33:31;10.10;;;7.90;;
77581;SDS011;66726;52.388;9.986;2023-05-10T05:36:03;8.90;;;7.27;;
77581;SDS011;66726;52.388;9.986;2023-05-10T05:38:36;11.43;;;8.03;;
77581;SDS011;66726;52.388;9.986;2023-05-10T05:41:10;8.37;;;7.50;;
77581;SDS011;66726;52.388;9.986;2023-05-10T05:43:42;9.40;;;7.57;;
77581;SDS011;66726;52.388;9.986;2023-05-10T05:46:14;8.87;;;8.00;;
77581;SDS011;66726;52.388;9.986;2023-05-10T05:48:46;11.30;;;7.67;;
77581;SDS011;66726;52.388;9.986;2023-05-10T05:51:17;8.63;;;7.63;;
77581;SDS011;66726;52.388;9.986;2023-05-10T05:53:49;10.10;;;7.60;;
77581;SDS011;66726;52.388;9.986;2023-05-10T05:56:22;10.00;;;8.30;;
77581;SDS011;66726;52.388;9.986;2023-05-10T05:58:54;10.47;;;8.80;;
77581;SDS011;66726;52.388;9.986;2023-05-10T06:01:26;10.53;;;8.43;;
77581;SDS011;66726;52.388;9.986;2023-05-10T06:03:58;9.70;;;8.10;;
77581;SDS011;66726;52.388;9.986;2023-05-10T06:06:30;13.07;;;8.93;;
77581;SDS011;66726;52.388;9.986;2023-05-10T06:09:02;10.37;;;8.23;;
77581;SDS011;66726;52.388;9.986;2023-05-10T06:11:35;13.53;;;8.20;;
77581;SDS011;66726;52.388;9.986;2023-05-10T06:14:07;10.00;;;9.00;;
77581;SDS011;66726;52.388;9.986;2023-05-10T06:16:38;12.50;;;8.77;;
77581;SDS011;66726;52.388;9.986;2023-05-10T06:19:10;10.07;;;9.07;;
77581;SDS011;66726;52.388;9.986;2023-05-10T06:21:42;10.90;;;9.27;;
77581;SDS011;66726;52.388;9.986;2023-05-10T06:24:15;11.13;;;8.63;;
77581;SDS011;66726;52.388;9.986;2023-05-10T06:26:49;10.17;;;9.03;;
77581;SDS011;66726;52.388;9.986;2023-05-10T06:29:21;10.77;;;8.43;;
77581;SDS011;66726;52.388;9.986;2023-05-10T06:31:54;11.17;;;10.03;;
77581;SDS011;66726;52.388;9.986;2023-05-10T06:34:26;9.67;;;8.53;;
77581;SDS011;66726;52.388;9.986;2023-05-10T06:36:58;9.33;;;8.43;;
77581;SDS011;66726;52.388;9.986;2023-05-10T06:39:30;14.57;;;8.30;;
77581;SDS011;66726;52.388;9.986;2023-05-10T06:42:03;9.13;;;8.23;;
77581;SDS011;66726;52.388;9.986;2023-05-10T06:44:36;9.37;;;8.20;;
77581;SDS011;66726;52.388;9.986;2023-05-10T06:47:08;8.00;;;7.20;;
77581;SDS011;66726;52.388;9.986;2023-05-10T06:49:39;8.90;;;8.10;;
77581;SDS011;66726;52.388;9.986;2023-05-10T06:52:11;9.07;;;8.27;;
77581;SDS011;66726;52.388;9.986;2023-05-10T06:54:43;8.40;;;7.60;;
77581;SDS011;66726;52.388;9.986;2023-05-10T06:57:17;9.97;;;8.73;;
77581;SDS011;66726;52.388;9.986;2023-05-10T06:59:57;9.23;;;8.33;;
77581;SDS011;66726;52.388;9.986;2023-05-10T07:02:30;10.37;;;8.50;;
77581;SDS011;66726;52.388;9.986;2023-05-10T07:05:02;8.90;;;7.90;;
77581;SDS011;66726;52.388;9.986;2023-05-10T07:07:34;9.00;;;8.10;;
77581;SDS011;66726;52.388;9.986;2023-05-10T07:10:09;8.87;;;8.10;;
77581;SDS011;66726;52.388;9.986;2023-05-10T07:12:42;8.90;;;7.30;;
77581;SDS011;66726;52.388;9.986;2023-05-10T07:15:14;8.63;;;7.77;;
77581;SDS011;66726;52.388;9.986;2023-05-10T07:17:45;8.23;;;7.37;;
77581;SDS011;66726;52.388;9.986;2023-05-10T07:20:18;9.80;;;7.97;;
77581;SDS011;66726;52.388;9.986;2023-05-10T07:22:50;8.93;;;8.13;;
77581;SDS011;66726;52.388;9.986;2023-05-10T07:25:22;10.93;;;8.23;;
77581;SDS011;66726;52.388;9.986;2023-05-10T07:27:55;8.80;;;8.00;;
77581;SDS011;66726;52.388;9.986;2023-05-10T07:30:27;7.63;;;6.57;;
77581;SDS011;66726;52.388;9.986;2023-05-10T07:32:59;8.43;;;7.67;;
77581;SDS011;66726;52.388;9.986;2023-05-10T07:35:31;8.33;;;7.53;;
77581;SDS011;66726;52.388;9.986;2023-05-10T07:38:02;9.10;;;8.20;;
77581;SDS011;66726;52.388;9.986;2023-05-10T07:40:34;8.83;;;7.93;;
77581;SDS011;66726;52.388;9.986;2023-05-10T07:43:07;9.67;;;8.27;;
77581;SDS011;66726;52.388;9.986;2023-05-10T07:45:41;8.57;;;7.67;;
77581;SDS011;66726;52.388;9.986;2023-05-10T07:48:14;9.83;;;8.43;;
77581;SDS011;66726;52.388;9.986;2023-05-10T07:50:46;10.60;;;7.83;;
77581;SDS011;66726;52.388;9.986;2023-05-10T07:53:20;9.00;;;7.93;;
77581;SDS011;66726;52.388;9.986;2023-05-10T07:55:53;9.17;;;8.33;;
77581;SDS011;66726;52.388;9.986;2023-05-10T07:58:27;6.77;;;6.07;;
77581;SDS011;66726;52.388;9.986;2023-05-10T08:01:01;13.03;;;8.73;;
77581;SDS011;66726;52.388;9.986;2023-05-10T08:03:32;8.43;;;7.53;;
77581;SDS011;66726;52.388;9.986;2023-05-10T08:06:05;8.70;;;7.80;;
77581;SDS011;66726;52.388;9.986;2023-05-10T08:08:39;8.53;;;7.63;;
77581;SDS011;66726;52.388;9.986;2023-05-10T08:11:11;9.17;;;8.23;;
77581;SDS011;66726;52.388;9.986;2023-05-10T08:13:45;8.07;;;7.23;;
77581;SDS011;66726;52.388;9.986;2023-05-10T08:16:20;9.77;;;7.73;;
77581;SDS011;66726;52.388;9.986;2023-05-10T08:18:52;8.77;;;7.83;;
77581;SDS011;66726;52.388;9.986;2023-05-10T08:21:24;9.17;;;8.17;;
77581;SDS011;66726;52.388;9.986;2023-05-10T08:23:57;9.17;;;8.33;;
77581;SDS011;66726;52.388;9.986;2023-05-10T08:26:30;9.80;;;8.77;;
77581;SDS011;66726;52.388;9.986;2023-05-10T08:29:04;9.37;;;8.17;;
77581;SDS011;66726;52.388;9.986;2023-05-10T08:31:36;9.17;;;8.27;;
77581;SDS011;66726;52.388;9.986;2023-05-10T08:34:08;11.23;;;9.17;;
77581;SDS011;66726;52.388;9.986;2023-05-10T08:36:39;8.73;;;7.83;;
77581;SDS011;66726;52.388;9.986;2023-05-10T08:39:13;9.13;;;8.20;;
77581;SDS011;66726;52.388;9.986;2023-05-10T08:41:55;11.53;;;8.50;;
77581;SDS011;66726;52.388;9.986;2023-05-10T08:44:33;9.90;;;8.10;;
77581;SDS011;66726;52.388;9.986;2023-05-10T08:47:06;9.93;;;8.40;;
77581;SDS011;66726;52.388;9.986;2023-05-10T08:49:40;7.80;;;7.10;;
77581;SDS011;66726;52.388;9.986;2023-05-10T08:52:18;9.53;;;7.20;;
77581;SDS011;66726;52.388;9.986;2023-05-10T08:54:55;8.83;;;7.10;;
77581;SDS011;66726;52.388;9.986;2023-05-10T08:57:30;7.10;;;6.40;;
77581;SDS011;66726;52.388;9.986;2023-05-10T09:00:05;6.60;;;6.00;;
77581;SDS011;66726;52.388;9.986;2023-05-10T09:02:39;7.60;;;6.13;;
77581;SDS011;66726;52.388;9.986;2023-05-10T09:05:14;6.10;;;5.53;;
77581;SDS011;66726;52.388;9.986;2023-05-10T09:07:48;6.53;;;5.90;;
77581;SDS011;66726;52.388;9.986;2023-05-10T09:10:22;5.53;;;5.03;;
77581;SDS011;66726;52.388;9.986;2023-05-10T09:12:56;4.90;;;4.40;;
77581;SDS011;66726;52.388;9.986;2023-05-10T09:15:30;6.13;;;5.07;;
77581;SDS011;66726;52.388;9.986;2023-05-10T09:18:04;4.37;;;3.97;;
77581;SDS011;66726;52.388;9.986;2023-05-10T09:20:35;5.03;;;4.27;;
77581;SDS011;66726;52.388;9.986;2023-05-10T09:23:08;5.23;;;4.47;;
77581;SDS011;66726;52.388;9.986;2023-05-10T09:25:41;3.67;;;3.33;;
77581;SDS011;66726;52.388;9.986;2023-05-10T09:28:15;3.17;;;2.87;;
77581;SDS011;66726;52.388;9.986;2023-05-10T09:30:47;4.10;;;3.70;;
77581;SDS011;66726;52.388;9.986;2023-05-10T09:33:24;4.50;;;3.33;;
77581;SDS011;66726;52.388;9.986;2023-05-10T09:36:10;4.97;;;4.13;;
77581;SDS011;66726;52.388;9.986;2023-05-10T09:38:45;3.90;;;3.60;;
77581;SDS011;66726;52.388;9.986;2023-05-10T09:41:19;4.80;;;4.40;;
77581;SDS011;66726;52.388;9.986;2023-05-10T09:43:55;3.77;;;3.47;;
77581;SDS011;66726;52.388;9.986;2023-05-10T09:46:28;3.73;;;3.20;;
77581;SDS011;66726;52.388;9.986;2023-05-10T09:49:04;3.37;;;3.07;;
77581;SDS011;66726;52.388;9.986;2023-05-10T09:51:41;3.53;;;3.23;;
77581;SDS011;66726;52.388;9.986;2023-05-10T09:54:13;4.83;;;3.20;;
77581;SDS011;66726;52.388;9.986;2023-05-10T09:56:47;3.97;;;3.67;;
77581;SDS011;66726;52.388;9.986;2023-05-10T09:59:18;4.37;;;3.70;;
77581;SDS011;66726;52.388;9.986;2023-05-10T10:01:53;4.57;;;4.17;;
77581;SDS011;66726;52.388;9.986;2023-05-10T10:04:28;4.53;;;4.13;;
77581;SDS011;66726;52.388;9.986;2023-05-10T10:07:06;4.23;;;3.83;;
77581;SDS011;66726;52.388;9.986;2023-05-10T10:09:38;4.40;;;4.00;;
77581;SDS011;66726;52.388;9.986;2023-05-10T10:12:09;5.93;;;3.70;;
77581;SDS011;66726;52.388;9.986;2023-05-10T10:14:47;5.03;;;4.53;;
77581;SDS011;66726;52.388;9.986;2023-05-10T10:17:22;4.63;;;4.13;;
77581;SDS011;66726;52.388;9.986;2023-05-10T10:19:59;5.43;;;4.37;;
77581;SDS011;66726;52.388;9.986;2023-05-10T10:22:38;5.83;;;4.50;;
77581;SDS011;66726;52.388;9.986;2023-05-10T10:25:12;6.47;;;4.50;;
77581;SDS011;66726;52.388;9.986;2023-05-10T10:27:49;4.70;;;4.20;;
77581;SDS011;66726;52.388;9.986;2023-05-10T10:30:39;4.80;;;4.30;;
77581;SDS011;66726;52.388;9.986;2023-05-10T10:33:29;5.43;;;4.60;;
77581;SDS011;66726;52.388;9.986;2023-05-10T10:36:13;4.90;;;4.30;;
77581;SDS011;66726;52.388;9.986;2023-05-10T10:38:56;6.23;;;4.30;;
77581;SDS011;66726;52.388;9.986;2023-05-10T10:41:36;5.37;;;4.60;;
77581;SDS011;66726;52.388;9.986;2023-05-10T10:44:26;5.27;;;4.77;;
77581;SDS011;66726;52.388;9.986;2023-05-10T10:47:05;8.00;;;4.87;;
77581;SDS011;66726;52.388;9.986;2023-05-10T10:50:04;6.07;;;5.00;;
77581;SDS011;66726;52.388;9.986;2023-05-10T10:52:39;5.97;;;4.40;;
77581;SDS011;66726;52.388;9.986;2023-05-10T10:55:16;5.80;;;5.17;;
77581;SDS011;66726;52.388;9.986;2023-05-10T10:57:51;5.73;;;4.40;;
77581;SDS011;66726;52.388;9.986;2023-05-10T11:00:28;5.07;;;4.53;;
77581;SDS011;66726;52.388;9.986;2023-05-10T11:03:03;5.97;;;4.80;;
77581;SDS011;66726;52.388;9.986;2023-05-10T11:05:41;11.57;;;4.90;;
77581;SDS011;66726;52.388;9.986;2023-05-10T11:08:16;7.10;;;5.37;;
77581;SDS011;66726;52.388;9.986;2023-05-10T11:11:03;6.60;;;5.03;;
77581;SDS011;66726;52.388;9.986;2023-05-10T11:13:38;4.40;;;3.93;;
77581;SDS011;66726;52.388;9.986;2023-05-10T11:16:16;6.77;;;4.90;;
77581;SDS011;66726;52.388;9.986;2023-05-10T11:18:56;7.80;;;5.13;;
77581;SDS011;66726;52.388;9.986;2023-05-10T11:21:31;5.70;;;4.90;;
77581;SDS011;66726;52.388;9.986;2023-05-10T11:24:15;5.50;;;5.00;;
77581;SDS011;66726;52.388;9.986;2023-05-10T11:26:50;6.80;;;4.90;;
77581;SDS011;66726;52.388;9.986;2023-05-10T11:29:23;5.80;;;5.20;;
77581;SDS011;66726;52.388;9.986;2023-05-10T11:31:56;6.70;;;5.50;;
77581;SDS011;66726;52.388;9.986;2023-05-10T11:34:31;5.43;;;4.90;;
77581;SDS011;66726;52.388;9.986;2023-05-10T11:37:04;6.33;;;4.50;;
77581;SDS011;66726;52.388;9.986;2023-05-10T11:39:36;5.03;;;4.17;;
77581;SDS011;66726;52.388;9.986;2023-05-10T11:42:13;5.83;;;4.10;;
77581;SDS011;66726;52.388;9.986;2023-05-10T11:44:45;4.77;;;4.10;;
77581;SDS011;66726;52.388;9.986;2023-05-10T11:47:17;6.37;;;4.77;;
77581;SDS011;66726;52.388;9.986;2023-05-10T11:49:52;5.47;;;4.53;;
77581;SDS011;66726;52.388;9.986;2023-05-10T11:52:25;4.97;;;4.10;;
77581;SDS011;66726;52.388;9.986;2023-05-10T11:55:02;5.10;;;4.17;;
77581;SDS011;66726;52.388;9.986;2023-05-10T11:57:35;5.87;;;4.00;;
77581;SDS011;66726;52.388;9.986;2023-05-10T12:00:09;6.17;;;4.10;;
77581;SDS011;66726;52.388;9.986;2023-05-10T12:02:42;6.20;;;3.93;;
77581;SDS011;66726;52.388;9.986;2023-05-10T12:05:14;5.77;;;3.70;;
77581;SDS011;66726;52.388;9.986;2023-05-10T12:07:48;4.87;;;3.60;;
77581;SDS011;66726;52.388;9.986;2023-05-10T12:10:25;5.60;;;4.00;;
77581;SDS011;66726;52.388;9.986;2023-05-10T12:13:01;5.10;;;3.80;;
77581;SDS011;66726;52.388;9.986;2023-05-10T12:15:37;5.87;;;3.87;;
77581;SDS011;66726;52.388;9.986;2023-05-10T12:18:09;4.57;;;3.90;;
77581;SDS011;66726;52.388;9.986;2023-05-10T12:20:41;6.47;;;4.13;;
77581;SDS011;66726;52.388;9.986;2023-05-10T12:23:15;5.50;;;4.37;;
77581;SDS011;66726;52.388;9.986;2023-05-10T12:25:47;3.70;;;3.30;;
77581;SDS011;66726;52.388;9.986;2023-05-10T12:28:20;4.80;;;4.23;;
77581;SDS011;66726;52.388;9.986;2023-05-10T12:30:52;4.37;;;3.97;;
77581;SDS011;66726;52.388;9.986;2023-05-10T12:33:26;5.17;;;4.20;;
77581;SDS011;66726;52.388;9.986;2023-05-10T12:36:08;5.40;;;3.97;;
77581;SDS011;66726;52.388;9.986;2023-05-10T12:38:43;5.27;;;4.00;;
77581;SDS011;66726;52.388;9.986;2023-05-10T12:41:16;4.67;;;4.10;;
77581;SDS011;66726;52.388;9.986;2023-05-10T12:43:48;4.07;;;3.67;;
77581;SDS011;66726;52.388;9.986;2023-05-10T12:46:20;7.67;;;4.13;;
77581;SDS011;66726;52.388;9.986;2023-05-10T12:48:53;4.50;;;4.10;;
77581;SDS011;66726;52.388;9.986;2023-05-10T12:51:34;4.73;;;4.27;;
77581;SDS011;66726;52.388;9.986;2023-05-10T12:54:08;4.93;;;4.20;;
77581;SDS011;66726;52.388;9.986;2023-05-10T12:56:40;4.17;;;3.73;;
77581;SDS011;66726;52.388;9.986;2023-05-10T12:59:12;6.00;;;5.03;;
77581;SDS011;66726;52.388;9.986;2023-05-10T13:01:44;6.87;;;5.10;;
77581;SDS011;66726;52.388;9.986;2023-05-10T13:04:16;5.93;;;4.70;;
77581;SDS011;66726;52.388;9.986;2023-05-10T13:06:48;8.33;;;4.97;;
77581;SDS011;66726;52.388;9.986;2023-05-10T13:09:23;7.23;;;5.23;;
77581;SDS011;66726;52.388;9.986;2023-05-10T13:11:56;5.60;;;4.80;;
77581;SDS011;66726;52.388;9.986;2023-05-10T13:14:28;5.37;;;4.87;;
77581;SDS011;66726;52.388;9.986;2023-05-10T13:17:00;5.27;;;4.20;;
77581;SDS011;66726;52.388;9.986;2023-05-10T13:19:33;5.43;;;4.10;;
77581;SDS011;66726;52.388;9.986;2023-05-10T13:22:05;5.43;;;4.13;;
77581;SDS011;66726;52.388;9.986;2023-05-10T13:24:38;5.13;;;4.10;;
77581;SDS011;66726;52.388;9.986;2023-05-10T13:27:10;4.40;;;4.00;;
77581;SDS011;66726;52.388;9.986;2023-05-10T13:29:42;4.87;;;4.37;;
77581;SDS011;66726;52.388;9.986;2023-05-10T13:32:14;5.77;;;4.63;;
77581;SDS011;66726;52.388;9.986;2023-05-10T13:34:46;6.97;;;4.33;;
77581;SDS011;66726;52.388;9.986;2023-05-10T13:37:18;4.93;;;4.10;;
77581;SDS011;66726;52.388;9.986;2023-05-10T13:39:51;6.77;;;4.30;;
77581;SDS011;66726;52.388;9.986;2023-05-10T13:42:23;4.67;;;4.20;;
77581;SDS011;66726;52.388;9.986;2023-05-10T13:44:55;4.87;;;4.40;;
77581;SDS011;66726;52.388;9.986;2023-05-10T13:47:27;6.30;;;4.63;;
77581;SDS011;66726;52.388;9.986;2023-05-10T13:49:59;5.03;;;4.50;;
77581;SDS011;66726;52.388;9.986;2023-05-10T13:52:31;6.83;;;5.27;;
77581;SDS011;66726;52.388;9.986;2023-05-10T13:55:05;8.07;;;5.30;;
77581;SDS011;66726;52.388;9.986;2023-05-10T13:57:38;7.17;;;5.23;;
77581;SDS011;66726;52.388;9.986;2023-05-10T14:00:10;5.90;;;4.33;;
77581;SDS011;66726;52.388;9.986;2023-05-10T14:02:44;4.70;;;4.10;;
77581;SDS011;66726;52.388;9.986;2023-05-10T14:05:16;6.50;;;3.43;;
77581;SDS011;66726;52.388;9.986;2023-05-10T14:07:51;8.83;;;4.20;;
77581;SDS011;66726;52.388;9.986;2023-05-10T14:10:25;4.13;;;3.57;;
77581;SDS011;66726;52.388;9.986;2023-05-10T14:12:56;5.73;;;3.73;;
77581;SDS011;66726;52.388;9.986;2023-05-10T14:15:28;3.33;;;3.03;;
77581;SDS011;66726;52.388;9.986;2023-05-10T14:18:00;3.60;;;2.70;;
77581;SDS011;66726;52.388;9.986;2023-05-10T14:20:32;3.13;;;2.80;;
77581;SDS011;66726;52.388;9.986;2023-05-10T14:23:04;4.27;;;3.20;;
77581;SDS011;66726;52.388;9.986;2023-05-10T14:25:39;5.07;;;3.70;;
77581;SDS011;66726;52.388;9.986;2023-05-10T14:28:10;4.97;;;3.43;;
77581;SDS011;66726;52.388;9.986;2023-05-10T14:30:43;4.50;;;3.80;;
77581;SDS011;66726;52.388;9.986;2023-05-10T14:33:16;5.20;;;3.30;;
77581;SDS011;66726;52.388;9.986;2023-05-10T14:35:48;3.77;;;3.03;;
77581;SDS011;66726;52.388;9.986;2023-05-10T14:38:22;3.50;;;3.20;;
77581;SDS011;66726;52.388;9.986;2023-05-10T14:40:56;4.07;;;3.17;;
77581;SDS011;66726;52.388;9.986;2023-05-10T14:43:28;3.80;;;2.90;;
77581;SDS011;66726;52.388;9.986;2023-05-10T14:46:00;3.17;;;2.13;;
77581;SDS011;66726;52.388;9.986;2023-05-10T14:48:32;5.73;;;4.40;;
77581;SDS011;66726;52.388;9.986;2023-05-10T14:51:03;7.47;;;5.70;;
77581;SDS011;66726;52.388;9.986;2023-05-10T14:53:35;7.50;;;5.97;;
77581;SDS011;66726;52.388;9.986;2023-05-10T14:56:08;6.83;;;5.53;;
77581;SDS011;66726;52.388;9.986;2023-05-10T14:58:40;8.07;;;5.90;;
77581;SDS011;66726;52.388;9.986;2023-05-10T15:01:12;8.67;;;6.70;;
77581;SDS011;66726;52.388;9.986;2023-05-10T15:03:44;7.67;;;6.87;;
77581;SDS011;66726;52.388;9.986;2023-05-10T15:06:17;9.43;;;7.47;;
77581;SDS011;66726;52.388;9.986;2023-05-10T15:09:01;12.23;;;8.57;;
77581;SDS011;66726;52.388;9.986;2023-05-10T15:11:35;10.10;;;7.97;;
77581;SDS011;66726;52.388;9.986;2023-05-10T15:14:07;8.53;;;7.53;;
77581;SDS011;66726;52.388;9.986;2023-05-10T15:16:38;8.80;;;7.80;;
77581;SDS011;66726;52.388;9.986;2023-05-10T15:19:10;9.17;;;8.07;;
77581;SDS011;66726;52.388;9.986;2023-05-10T15:21:42;8.23;;;7.43;;
77581;SDS011;66726;52.388;9.986;2023-05-10T15:24:15;9.90;;;7.73;;
77581;SDS011;66726;52.388;9.986;2023-05-10T15:26:48;8.83;;;7.57;;
77581;SDS011;66726;52.388;9.986;2023-05-10T15:29:20;9.50;;;7.53;;
77581;SDS011;66726;52.388;9.986;2023-05-10T15:31:53;8.97;;;7.63;;